createdAt,value
2023-05-08T00:00:57.823Z,89.6923
2023-05-08T00:01:58.909Z,86.4615
2023-05-08T00:03:00.213Z,88.5385
2023-05-08T00:04:01.194Z,83.5385
2023-05-08T00:05:02.275Z,83.8462
2023-05-08T00:06:03.312Z,87.0000
2023-05-08T00:07:04.416Z,85.1538
2023-05-08T00:08:05.579Z,89.3846
2023-05-08T00:09:06.637Z,88.3846
2023-05-08T00:10:07.745Z,83.8462
2023-05-08T00:11:08.850Z,86.0000
2023-05-08T00:12:09.941Z,86.0769
2023-05-08T00:13:11.078Z,80.3846
2023-05-08T00:14:12.123Z,81.0769
2023-05-08T00:15:13.234Z,83.1538
2023-05-08T00:16:14.398Z,80.5385
2023-05-08T00:17:15.427Z,77.3077
2023-05-08T00:18:16.521Z,82.7692
2023-05-08T00:19:17.615Z,83.0000
2023-05-08T00:20:18.721Z,83.0769
2023-05-08T00:21:19.834Z,84.4615
2023-05-08T00:22:20.930Z,80.0000
2023-05-08T00:23:22.047Z,81.6154
2023-05-08T00:24:23.111Z,85.3077
2023-05-08T00:25:24.211Z,83.6154
2023-05-08T00:26:25.325Z,81.0769
2023-05-08T00:27:26.402Z,84.1538
2023-05-08T00:28:27.514Z,82.6154
2023-05-08T00:29:28.606Z,79.6154
2023-05-08T00:30:29.733Z,78.1538
2023-05-08T00:31:30.823Z,81.9231
2023-05-08T00:32:31.899Z,80.2308
2023-05-08T00:33:33.041Z,82.0769
2023-05-08T00:34:34.098Z,77.6923
2023-05-08T00:35:35.193Z,80.5385
2023-05-08T00:36:36.274Z,86.2308
2023-05-08T00:37:37.385Z,85.3846
2023-05-08T00:38:38.513Z,84.0000
2023-05-08T00:39:39.587Z,83.5385
2023-05-08T00:40:40.695Z,87.1538
2023-05-08T00:41:41.789Z,83.0769
2023-05-08T00:42:42.875Z,83.2308
2023-05-08T00:43:44.005Z,83.4615
2023-05-08T00:44:45.075Z,83.6154
2023-05-08T00:45:46.242Z,87.5385
2023-05-08T00:46:47.343Z,85.0769
2023-05-08T00:47:48.398Z,82.1538
2023-05-08T00:48:49.550Z,81.1538
2023-05-08T00:49:50.582Z,79.0000
2023-05-08T00:50:51.682Z,81.7692
2023-05-08T00:51:52.800Z,79.8462
2023-05-08T00:52:53.886Z,87.6154
2023-05-08T00:53:55.019Z,84.6154
2023-05-08T00:54:56.060Z,83.7692
2023-05-08T00:55:57.303Z,80.3846
2023-05-08T00:56:58.295Z,80.2308
2023-05-08T00:57:59.404Z,84.9231
2023-05-08T00:59:00.496Z,86.1538
2023-05-08T01:00:01.574Z,88.1538
2023-05-08T01:01:02.707Z,88.5385
2023-05-08T01:02:03.775Z,88.9231
2023-05-08T01:03:04.946Z,91.0769
2023-05-08T01:04:05.992Z,91.3077
2023-05-08T01:05:07.062Z,87.1538
2023-05-08T01:06:08.207Z,87.1538
2023-05-08T01:07:09.293Z,85.5385
2023-05-08T01:08:10.364Z,81.4615
2023-05-08T01:09:11.485Z,85.7692
2023-05-08T01:10:12.770Z,88.9231
2023-05-08T01:11:13.648Z,87.0769
2023-05-08T01:12:14.765Z,93.5385
2023-05-08T01:13:15.884Z,90.9231
2023-05-08T01:14:16.958Z,88.5385
2023-05-08T01:15:18.051Z,89.8462
2023-05-08T01:16:19.219Z,88.3846
2023-05-08T01:17:20.276Z,86.2308
2023-05-08T01:18:21.336Z,89.7692
2023-05-08T01:19:22.458Z,89.6154
2023-05-08T01:20:23.527Z,90.5385
2023-05-08T01:21:24.643Z,87.0769
2023-05-08T01:22:25.727Z,91.0769
2023-05-08T01:23:26.826Z,86.7692
2023-05-08T01:24:27.920Z,92.6154
2023-05-08T01:25:29.060Z,89.6154
2023-05-08T01:26:30.142Z,88.2308
2023-05-08T01:27:31.216Z,91.0769
2023-05-08T01:28:32.319Z,91.5385
2023-05-08T01:29:33.800Z,94.7692
2023-05-08T01:30:34.508Z,92.2308
2023-05-08T01:31:35.612Z,88.5385
2023-05-08T01:32:36.764Z,87.0000
2023-05-08T01:33:37.859Z,85.4615
2023-05-08T01:34:38.954Z,84.9231
2023-05-08T01:35:40.005Z,85.9231
2023-05-08T01:36:41.107Z,86.1538
2023-05-08T01:37:42.215Z,85.0769
2023-05-08T01:38:43.301Z,89.8462
2023-05-08T01:39:44.404Z,86.9231
2023-05-08T01:40:45.488Z,84.1538
2023-05-08T01:41:46.630Z,84.2308
2023-05-08T01:42:47.706Z,82.8462
2023-05-08T01:43:48.815Z,84.7692
2023-05-08T01:44:49.905Z,82.5385
2023-05-08T01:45:50.999Z,87.5385
2023-05-08T01:46:52.198Z,85.2308
2023-05-08T01:47:53.189Z,86.7692
2023-05-08T01:48:54.292Z,93.0769
2023-05-08T01:49:55.385Z,90.0769
2023-05-08T01:50:56.474Z,85.3077
2023-05-08T01:51:57.581Z,92.9231
2023-05-08T01:52:58.679Z,91.0000
2023-05-08T01:53:59.801Z,93.6923
2023-05-08T01:55:00.874Z,87.3077
2023-05-08T01:56:01.949Z,82.0000
2023-05-08T01:57:03.058Z,86.0769
2023-05-08T01:58:04.162Z,89.0000
2023-05-08T01:59:05.237Z,85.5385
2023-05-08T02:00:06.346Z,88.2308
2023-05-08T02:01:07.528Z,91.0000
2023-05-08T02:02:08.589Z,89.6923
2023-05-08T02:03:09.719Z,87.0769
2023-05-08T02:04:10.767Z,87.3077
2023-05-08T02:05:11.868Z,87.3077
2023-05-08T02:06:12.927Z,88.8462
2023-05-08T02:07:14.052Z,88.8462
2023-05-08T02:08:15.155Z,90.0000
2023-05-08T02:09:16.242Z,89.0000
2023-05-08T02:10:25.322Z,94.4615
2023-05-08T02:11:18.431Z,94.7500
2023-05-08T02:12:19.546Z,96.5385
2023-05-08T02:13:20.780Z,91.4615
2023-05-08T02:14:21.741Z,92.6923
2023-05-08T02:15:22.846Z,93.5385
2023-05-08T02:16:23.975Z,90.3846
2023-05-08T02:17:25.060Z,87.6923
2023-05-08T02:18:26.140Z,91.6923
2023-05-08T02:19:27.248Z,86.9231
2023-05-08T02:20:28.418Z,87.0000
2023-05-08T02:21:29.512Z,85.6923
2023-05-08T02:22:30.617Z,89.3846
2023-05-08T02:23:31.725Z,86.9231
2023-05-08T02:24:32.798Z,84.0769
2023-05-08T02:25:33.905Z,85.6923
2023-05-08T02:26:35.016Z,87.0769
2023-05-08T02:27:36.143Z,89.0769
2023-05-08T02:28:37.235Z,90.2308
2023-05-08T02:29:38.329Z,90.8462
2023-05-08T02:30:39.436Z,93.6923
2023-05-08T02:31:40.584Z,90.3846
2023-05-08T02:32:41.656Z,90.2308
2023-05-08T02:33:42.735Z,90.2308
2023-05-08T02:34:54.920Z,83.9231
2023-05-08T02:35:45.933Z,86.1538
2023-05-08T02:36:46.013Z,85.1538
2023-05-08T02:37:47.133Z,84.4615
2023-05-08T02:38:48.220Z,85.8462
2023-05-08T02:39:49.314Z,88.6923
2023-05-08T02:40:50.434Z,88.0000
2023-05-08T02:41:51.542Z,89.2308
2023-05-08T02:42:52.648Z,87.6923
2023-05-08T02:43:53.731Z,86.0000
2023-05-08T02:44:54.853Z,86.1538
2023-05-08T02:45:55.941Z,86.7692
2023-05-08T02:46:57.041Z,83.9231
2023-05-08T02:47:58.138Z,88.6923
2023-05-08T02:48:59.228Z,88.5385
2023-05-08T02:50:00.419Z,85.3077
2023-05-08T02:51:01.417Z,89.0769
2023-05-08T02:52:02.529Z,85.9231
2023-05-08T02:53:03.648Z,89.7692
2023-05-08T02:54:04.734Z,90.5385
2023-05-08T02:55:05.808Z,89.3077
2023-05-08T02:56:06.918Z,87.3846
2023-05-08T02:57:08.011Z,89.0000
2023-05-08T02:58:09.099Z,89.0000
2023-05-08T02:59:10.216Z,88.2308
2023-05-08T03:00:11.483Z,93.3846
2023-05-08T03:01:12.418Z,94.4615
2023-05-08T03:02:13.555Z,88.4615
2023-05-08T03:03:14.669Z,85.9231
2023-05-08T03:04:15.712Z,85.7692
2023-05-08T03:05:16.809Z,88.3846
2023-05-08T03:06:17.899Z,89.5385
2023-05-08T03:07:19.011Z,83.9231
2023-05-08T03:08:20.086Z,84.2308
2023-05-08T03:09:21.228Z,85.5385
2023-05-08T03:10:22.283Z,87.0769
2023-05-08T03:11:23.408Z,86.3846
2023-05-08T03:12:24.485Z,89.3846
2023-05-08T03:13:25.626Z,87.4615
2023-05-08T03:14:26.693Z,88.3077
2023-05-08T03:15:27.779Z,88.2308
2023-05-08T03:16:28.954Z,87.3846
2023-05-08T03:17:30.022Z,85.2308
2023-05-08T03:18:31.078Z,89.0769
2023-05-08T03:19:32.146Z,91.6923
2023-05-08T03:20:33.249Z,95.9231
2023-05-08T03:21:34.386Z,89.9231
2023-05-08T03:22:35.461Z,90.6923
2023-05-08T03:23:36.545Z,91.2308
2023-05-08T03:24:37.665Z,91.6923
2023-05-08T03:25:38.753Z,95.3077
2023-05-08T03:26:39.859Z,92.0769
2023-05-08T03:27:40.985Z,93.5385
2023-05-08T03:28:42.106Z,91.1538
2023-05-08T03:29:43.174Z,91.5385
2023-05-08T03:30:44.301Z,93.0769
2023-05-08T03:31:45.392Z,92.0000
2023-05-08T03:32:46.511Z,91.0769
2023-05-08T03:33:47.590Z,90.9231
2023-05-08T03:34:48.683Z,91.5385
2023-05-08T03:35:49.826Z,96.2308
2023-05-08T03:36:50.885Z,92.4615
2023-05-08T03:37:52.028Z,96.0769
2023-05-08T03:38:53.086Z,92.4615
2023-05-08T03:39:54.202Z,92.8462
2023-05-08T03:40:55.343Z,90.7692
2023-05-08T03:41:56.404Z,93.3846
2023-05-08T03:42:57.541Z,92.0000
2023-05-08T03:43:58.643Z,96.1538
2023-05-08T03:44:59.703Z,94.1538
2023-05-08T03:46:00.805Z,97.9231
2023-05-08T03:47:02.005Z,93.7692
2023-05-08T03:48:03.052Z,97.7692
2023-05-08T03:49:04.142Z,93.2308
2023-05-08T03:50:05.229Z,94.3846
2023-05-08T03:51:06.362Z,93.7692
2023-05-08T03:52:07.438Z,93.0000
2023-05-08T03:53:08.573Z,91.7692
2023-05-08T03:54:09.634Z,94.8462
2023-05-08T03:55:10.763Z,95.1538
2023-05-08T03:56:11.858Z,93.8462
2023-05-08T03:57:12.951Z,86.3846
2023-05-08T03:58:14.078Z,89.5385
2023-05-08T03:59:15.212Z,88.9231
2023-05-08T04:00:16.267Z,94.3077
2023-05-08T04:01:17.405Z,92.0769
2023-05-08T04:02:18.592Z,92.6154
2023-05-08T04:03:19.677Z,94.1538
2023-05-08T04:04:20.785Z,96.6154
2023-05-08T04:05:21.780Z,93.8462
2023-05-08T04:06:22.885Z,98.0000
2023-05-08T04:07:23.961Z,96.8462
2023-05-08T04:08:25.103Z,96.5385
2023-05-08T04:09:26.188Z,95.0769
2023-05-08T04:10:27.280Z,92.3846
2023-05-08T04:11:28.368Z,95.3846
2023-05-08T04:12:29.480Z,87.0000
2023-05-08T04:13:30.830Z,86.8462
2023-05-08T04:14:31.687Z,84.1538
2023-05-08T04:15:32.766Z,85.6923
2023-05-08T04:16:33.909Z,87.3846
2023-05-08T04:17:35.034Z,91.6923
2023-05-08T04:18:36.069Z,83.7692
2023-05-08T04:19:37.177Z,87.5385
2023-05-08T04:20:38.282Z,85.6923
2023-05-08T04:21:39.364Z,84.5385
2023-05-08T04:22:40.481Z,85.7692
2023-05-08T04:23:41.578Z,85.3077
2023-05-08T04:24:42.664Z,84.9231
2023-05-08T04:25:43.755Z,83.0769
2023-05-08T04:26:44.856Z,83.6154
2023-05-08T04:27:45.966Z,82.3077
2023-05-08T04:28:47.083Z,82.4615
2023-05-08T04:29:48.213Z,82.3077
2023-05-08T04:30:49.282Z,80.0000
2023-05-08T04:31:50.405Z,83.2308
2023-05-08T04:32:51.529Z,83.7692
2023-05-08T04:33:52.564Z,86.2308
2023-05-08T04:34:53.658Z,83.3846
2023-05-08T04:35:54.745Z,86.2308
2023-05-08T04:36:55.844Z,83.8462
2023-05-08T04:37:56.965Z,84.6923
2023-05-08T04:38:59.140Z,82.9231
2023-05-08T04:39:59.168Z,85.1538
2023-05-08T04:41:00.286Z,89.8462
2023-05-08T04:42:01.356Z,84.6154
2023-05-08T04:43:02.452Z,81.4615
2023-05-08T04:44:03.561Z,80.3077
2023-05-08T04:45:04.661Z,83.2308
2023-05-08T04:46:05.837Z,82.4615
2023-05-08T04:47:06.834Z,77.6154
2023-05-08T04:48:08.001Z,91.8462
2023-05-08T04:49:09.043Z,87.0769
2023-05-08T04:50:10.126Z,79.6923
2023-05-08T04:51:11.236Z,79.1538
2023-05-08T04:52:12.323Z,81.9231
2023-05-08T04:53:13.440Z,77.5385
2023-05-08T04:54:14.543Z,79.9231
2023-05-08T04:55:15.607Z,78.7692
2023-05-08T04:56:16.721Z,83.7692
2023-05-08T04:57:17.816Z,83.2308
2023-05-08T04:58:18.909Z,87.4615
2023-05-08T04:59:20.009Z,87.1538
2023-05-08T05:00:21.107Z,82.6154
2023-05-08T05:01:22.221Z,83.0769
2023-05-08T05:02:23.306Z,90.7692
2023-05-08T05:03:24.521Z,88.4615
2023-05-08T05:04:25.499Z,83.6923
2023-05-08T05:05:26.595Z,86.3077
2023-05-08T05:06:27.696Z,87.5385
2023-05-08T05:07:28.807Z,89.7692
2023-05-08T05:08:29.910Z,90.5385
2023-05-08T05:09:31.020Z,96.5385
2023-05-08T05:10:32.101Z,92.7692
2023-05-08T05:11:33.189Z,90.8462
2023-05-08T05:12:34.277Z,90.0000
2023-05-08T05:13:35.393Z,87.9231
2023-05-08T05:14:36.523Z,88.9231
2023-05-08T05:15:37.583Z,88.3077
2023-05-08T05:16:38.783Z,87.4615
2023-05-08T05:17:39.817Z,88.5385
2023-05-08T05:18:40.912Z,89.7692
2023-05-08T05:19:42.018Z,89.0000
2023-05-08T05:20:43.094Z,88.2308
2023-05-08T05:21:44.196Z,87.6923
2023-05-08T05:22:45.305Z,93.1538
2023-05-08T05:23:46.386Z,92.2308
2023-05-08T05:24:47.504Z,94.8462
2023-05-08T05:25:48.607Z,91.4615
2023-05-08T05:26:49.704Z,88.6154
2023-05-08T05:27:50.798Z,85.5385
2023-05-08T05:28:51.900Z,87.4615
2023-05-08T05:29:53.010Z,89.6154
2023-05-08T05:30:54.090Z,93.2308
2023-05-08T05:31:55.208Z,90.6154
2023-05-08T05:32:56.327Z,84.3846
2023-05-08T05:33:57.374Z,88.3846
2023-05-08T05:34:58.485Z,85.6154
2023-05-08T05:35:59.576Z,80.6923
2023-05-08T05:37:00.678Z,81.6154
2023-05-08T05:38:01.777Z,80.8462
2023-05-08T05:39:02.883Z,80.5385
2023-05-08T05:40:03.986Z,82.3846
2023-05-08T05:41:05.074Z,81.0000
2023-05-08T05:42:06.193Z,82.6923
2023-05-08T05:43:07.277Z,82.4615
2023-05-08T05:44:08.394Z,85.0000
2023-05-08T05:45:09.489Z,82.2308
2023-05-08T05:46:10.574Z,82.8462
2023-05-08T05:47:11.815Z,84.7692
2023-05-08T05:48:12.902Z,86.1538
2023-05-08T05:49:13.881Z,87.8462
2023-05-08T05:50:15.052Z,89.5385
2023-05-08T05:51:16.093Z,93.7692
2023-05-08T05:52:17.190Z,92.2308
2023-05-08T05:53:18.265Z,90.6154
2023-05-08T05:54:19.357Z,86.6154
2023-05-08T05:55:20.480Z,89.3846
2023-05-08T05:56:21.557Z,85.1538
2023-05-08T05:57:22.661Z,83.9231
2023-05-08T05:58:23.754Z,86.5385
2023-05-08T05:59:24.850Z,92.2308
2023-05-08T06:00:25.947Z,94.6923
2023-05-08T06:01:27.050Z,88.0000
2023-05-08T06:02:28.239Z,89.9231
2023-05-08T06:03:29.308Z,88.1538
2023-05-08T06:04:30.510Z,87.7692
2023-05-08T06:05:31.469Z,88.1538
2023-05-08T06:06:32.551Z,91.6923
2023-05-08T06:07:33.645Z,92.9231
2023-05-08T06:08:34.756Z,91.1538
2023-05-08T06:09:35.848Z,93.1538
2023-05-08T06:10:36.957Z,91.9231
2023-05-08T06:11:38.035Z,91.3077
2023-05-08T06:12:39.212Z,94.5385
2023-05-08T06:13:40.242Z,99.6923
2023-05-08T06:14:41.320Z,101.9231
2023-05-08T06:15:42.452Z,99.1538
2023-05-08T06:16:43.655Z,94.8462
2023-05-08T06:17:44.686Z,93.7692
2023-05-08T06:18:45.724Z,101.0000
2023-05-08T06:19:46.816Z,99.8462
2023-05-08T06:20:48.009Z,94.3077
2023-05-08T06:21:49.096Z,96.6923
2023-05-08T06:22:50.205Z,100.6923
2023-05-08T06:23:51.300Z,102.1538
2023-05-08T06:24:52.393Z,106.9231
2023-05-08T06:25:53.502Z,103.3846
2023-05-08T06:26:54.592Z,98.3077
2023-05-08T06:27:55.694Z,102.3846
2023-05-08T06:28:56.803Z,99.0769
2023-05-08T06:29:57.915Z,96.7692
2023-05-08T06:30:59.065Z,93.1538
2023-05-08T06:32:00.132Z,92.8462
2023-05-08T06:33:01.325Z,94.6923
2023-05-08T06:34:02.271Z,92.9231
2023-05-08T06:35:03.395Z,97.6154
2023-05-08T06:36:04.491Z,96.6923
2023-05-08T06:37:05.579Z,96.0769
2023-05-08T06:38:06.674Z,91.6923
2023-05-08T06:39:07.798Z,94.6154
2023-05-08T06:40:12.694Z,97.0000
2023-05-08T06:41:09.992Z,101.2308
2023-05-08T06:42:11.074Z,96.1538
2023-05-08T06:43:12.170Z,95.9231
2023-05-08T06:44:13.270Z,96.3077
2023-05-08T06:45:14.582Z,98.6923
2023-05-08T06:46:15.555Z,96.5385
2023-05-08T06:47:16.700Z,95.3077
2023-05-08T06:48:17.656Z,95.8462
2023-05-08T06:49:18.774Z,100.0769
2023-05-08T06:50:19.867Z,97.9231
2023-05-08T06:51:20.955Z,94.8462
2023-05-08T06:52:22.049Z,97.2308
2023-05-08T06:53:23.161Z,97.2308
2023-05-08T06:54:24.248Z,103.3846
2023-05-08T06:55:25.366Z,100.0769
2023-05-08T06:56:26.465Z,100.0769
2023-05-08T06:57:27.549Z,100.0000
2023-05-08T06:58:28.645Z,104.6154
2023-05-08T06:59:29.742Z,97.0000
2023-05-08T07:00:30.872Z,94.1538
2023-05-08T07:01:32.006Z,91.6154
2023-05-08T07:02:33.117Z,97.7692
2023-05-08T07:03:34.139Z,103.2308
2023-05-08T07:04:35.285Z,102.6923
2023-05-08T07:05:36.337Z,102.7692
2023-05-08T07:06:37.458Z,97.5385
2023-05-08T07:07:38.540Z,99.5385
2023-05-08T07:08:39.624Z,101.0769
2023-05-08T07:09:40.734Z,100.6154
2023-05-08T07:10:41.845Z,101.2308
2023-05-08T07:11:42.939Z,103.0000
2023-05-08T07:12:44.077Z,100.6154
2023-05-08T07:13:45.145Z,101.3077
2023-05-08T07:14:46.242Z,99.5385
2023-05-08T07:15:47.339Z,100.0000
2023-05-08T07:16:48.458Z,98.5385
2023-05-08T07:17:49.583Z,96.7692
2023-05-08T07:18:50.620Z,100.8462
2023-05-08T07:19:51.719Z,101.0769
2023-05-08T07:20:52.826Z,97.4615
2023-05-08T07:21:53.944Z,97.3846
2023-05-08T07:22:54.987Z,93.7692
2023-05-08T07:23:56.101Z,95.6154
2023-05-08T07:24:57.222Z,91.1538
2023-05-08T07:25:58.285Z,94.8462
2023-05-08T07:26:59.399Z,96.5385
2023-05-08T07:28:01.504Z,98.0000
2023-05-08T07:29:01.573Z,94.0769
2023-05-08T07:30:02.682Z,94.5385
2023-05-08T07:31:03.861Z,97.0000
2023-05-08T07:32:04.954Z,94.0769
2023-05-08T07:33:06.050Z,92.3846
2023-05-08T07:34:07.058Z,94.2308
2023-05-08T07:35:09.752Z,94.4615
2023-05-08T07:36:09.236Z,97.3846
2023-05-08T07:37:10.375Z,99.0000
2023-05-08T07:38:11.455Z,102.9231
2023-05-08T07:39:12.558Z,99.5385
2023-05-08T07:40:13.644Z,95.6923
2023-05-08T07:41:14.783Z,97.2308
2023-05-08T07:42:15.861Z,101.1538
2023-05-08T07:43:16.914Z,99.6154
2023-05-08T07:44:18.060Z,92.6923
2023-05-08T07:45:19.119Z,96.3077
2023-05-08T07:46:20.229Z,100.3846
2023-05-08T07:47:21.322Z,102.4615
2023-05-08T07:48:22.477Z,101.6154
2023-05-08T07:49:23.487Z,99.0769
2023-05-08T07:50:24.573Z,102.3077
2023-05-08T07:51:25.684Z,103.5385
2023-05-08T07:52:26.785Z,107.0000
2023-05-08T07:53:27.854Z,108.1538
2023-05-08T07:54:28.953Z,101.5385
2023-05-08T07:55:30.061Z,103.6154
2023-05-08T07:56:31.142Z,103.2308
2023-05-08T07:57:32.246Z,104.7692
2023-05-08T07:58:33.354Z,105.2308
2023-05-08T07:59:34.458Z,106.3846
2023-05-08T08:00:35.516Z,106.1538
2023-05-08T08:01:36.727Z,104.6923
2023-05-08T08:02:37.845Z,103.5385
2023-05-08T08:03:38.988Z,102.7692
2023-05-08T08:04:40.020Z,102.5385
2023-05-08T08:05:41.030Z,105.3846
2023-05-08T08:06:42.101Z,105.0000
2023-05-08T08:07:43.229Z,102.0769
2023-05-08T08:08:44.298Z,102.5385
2023-05-08T08:09:45.398Z,96.6154
2023-05-08T08:10:46.479Z,98.6923
2023-05-08T08:11:47.583Z,102.3846
2023-05-08T08:12:48.769Z,102.9231
2023-05-08T08:13:49.781Z,104.4615
2023-05-08T08:14:50.875Z,96.6923
2023-05-08T08:15:52.022Z,99.3077
2023-05-08T08:16:53.135Z,102.0769
2023-05-08T08:17:54.239Z,104.0000
2023-05-08T08:18:55.369Z,94.9231
2023-05-08T08:19:56.402Z,96.0769
2023-05-08T08:20:57.482Z,92.0000
2023-05-08T08:21:58.568Z,92.6923
2023-05-08T08:22:59.666Z,97.4615
2023-05-08T08:24:00.759Z,98.5385
2023-05-08T08:25:01.872Z,93.2308
2023-05-08T08:26:02.977Z,97.3846
2023-05-08T08:27:04.062Z,99.6154
2023-05-08T08:28:05.185Z,100.5385
2023-05-08T08:29:06.259Z,96.6154
2023-05-08T08:30:16.695Z,95.9231
2023-05-08T08:31:09.481Z,99.3846
2023-05-08T08:32:09.562Z,99.2308
2023-05-08T08:33:10.761Z,101.0769
2023-05-08T08:34:11.860Z,98.3846
2023-05-08T08:35:13.376Z,97.8462
2023-05-08T08:36:13.973Z,99.0000
2023-05-08T08:37:15.059Z,99.3846
2023-05-08T08:38:16.184Z,101.4615
2023-05-08T08:39:17.262Z,102.0769
2023-05-08T08:40:18.392Z,106.6154
2023-05-08T08:41:19.470Z,103.1538
2023-05-08T08:42:20.596Z,102.0769
2023-05-08T08:43:21.682Z,100.6923
2023-05-08T08:44:22.763Z,95.0769
2023-05-08T08:45:23.877Z,97.2308
2023-05-08T08:46:25.014Z,97.8462
2023-05-08T08:47:26.108Z,97.6154
2023-05-08T08:48:27.170Z,100.6154
2023-05-08T08:49:28.360Z,106.7692
2023-05-08T08:50:29.389Z,103.7692
2023-05-08T08:51:30.474Z,102.6923
2023-05-08T08:52:31.585Z,95.9231
2023-05-08T08:53:32.692Z,89.8462
2023-05-08T08:54:33.770Z,94.9231
2023-05-08T08:55:34.872Z,92.7692
2023-05-08T08:56:36.014Z,90.9231
2023-05-08T08:57:37.099Z,93.6154
2023-05-08T08:58:39.250Z,93.6923
2023-05-08T08:59:39.287Z,98.3077
2023-05-08T09:00:40.395Z,104.3077
2023-05-08T09:01:41.500Z,98.6923
2023-05-08T09:02:42.647Z,102.0769
2023-05-08T09:03:43.799Z,103.7692
2023-05-08T09:04:44.847Z,102.6923
2023-05-08T09:05:45.884Z,100.9231
2023-05-08T09:06:46.968Z,100.6154
2023-05-08T09:07:48.076Z,101.6923
2023-05-08T09:08:49.200Z,106.5385
2023-05-08T09:09:50.270Z,106.7692
2023-05-08T09:10:51.368Z,105.7692
2023-05-08T09:11:52.502Z,97.6923
2023-05-08T09:12:53.590Z,95.5385
2023-05-08T09:13:54.685Z,95.6154
2023-05-08T09:14:55.789Z,95.4615
2023-05-08T09:15:56.895Z,90.6923
2023-05-08T09:16:57.987Z,96.3077
2023-05-08T09:17:59.171Z,94.7692
2023-05-08T09:19:00.184Z,98.5385
2023-05-08T09:20:01.374Z,101.2308
2023-05-08T09:21:02.394Z,100.5385
2023-05-08T09:22:03.493Z,99.6154
2023-05-08T09:23:04.673Z,100.1538
2023-05-08T09:24:05.695Z,97.7692
2023-05-08T09:25:06.785Z,97.6923
2023-05-08T09:26:07.893Z,103.3846
2023-05-08T09:27:08.982Z,106.0000
2023-05-08T09:28:10.078Z,101.3077
2023-05-08T09:29:11.213Z,101.0769
2023-05-08T09:30:12.310Z,102.4615
2023-05-08T09:31:13.402Z,107.0769
2023-05-08T09:32:14.485Z,101.8462
2023-05-08T09:33:15.660Z,101.6154
2023-05-08T09:34:16.675Z,100.8462
2023-05-08T09:35:17.984Z,98.8462
2023-05-08T09:36:18.851Z,105.7692
2023-05-08T09:37:19.963Z,107.2308
2023-05-08T09:38:21.046Z,103.5385
2023-05-08T09:39:22.159Z,103.0769
2023-05-08T09:40:23.287Z,99.1538
2023-05-08T09:41:24.358Z,94.3846
2023-05-08T09:42:25.461Z,98.3077
2023-05-08T09:43:26.562Z,98.8462
2023-05-08T09:44:27.670Z,102.6154
2023-05-08T09:45:28.841Z,103.3077
2023-05-08T09:46:29.887Z,103.6923
2023-05-08T09:47:30.967Z,115.5385
2023-05-08T09:48:32.060Z,114.9231
2023-05-08T09:49:33.148Z,117.0000
2023-05-08T09:50:34.327Z,113.6923
2023-05-08T09:51:35.344Z,110.6154
2023-05-08T09:52:36.497Z,111.5385
2023-05-08T09:53:37.548Z,114.3077
2023-05-08T09:54:38.640Z,115.0769
2023-05-08T09:55:39.729Z,115.6154
2023-05-08T09:56:40.843Z,119.7692
2023-05-08T09:57:41.926Z,119.6154
2023-05-08T09:58:43.074Z,121.0000
2023-05-08T09:59:44.142Z,116.6154
2023-05-08T10:00:45.281Z,121.3077
2023-05-08T10:01:46.345Z,128.1538
2023-05-08T10:02:47.462Z,122.1538
2023-05-08T10:03:48.593Z,132.4615
2023-05-08T10:04:49.685Z,130.1538
2023-05-08T10:05:50.840Z,131.1538
2023-05-08T10:06:52.357Z,128.0000
2023-05-08T10:07:52.960Z,129.6154
2023-05-08T10:08:54.055Z,133.4615
2023-05-08T10:09:55.180Z,131.3846
2023-05-08T10:10:56.245Z,139.9231
2023-05-08T10:11:57.348Z,139.7692
2023-05-08T10:12:58.549Z,132.5385
2023-05-08T10:13:59.541Z,131.3077
2023-05-08T10:15:00.665Z,130.3846
2023-05-08T10:16:01.733Z,134.7692
2023-05-08T10:17:02.921Z,134.6923
2023-05-08T10:18:04.088Z,135.5385
2023-05-08T10:19:05.062Z,131.6923
2023-05-08T10:20:06.170Z,133.8462
2023-05-08T10:21:07.332Z,131.2308
2023-05-08T10:22:08.433Z,130.1538
2023-05-08T10:23:09.523Z,130.0769
2023-05-08T10:24:10.638Z,131.1538
2023-05-08T10:25:11.991Z,126.3077
2023-05-08T10:26:12.840Z,133.3846
2023-05-08T10:27:13.939Z,132.0769
2023-05-08T10:28:15.045Z,127.6923
2023-05-08T10:29:16.150Z,128.6923
2023-05-08T10:30:17.274Z,129.9231
2023-05-08T10:31:18.401Z,128.4615
2023-05-08T10:32:19.434Z,122.0769
2023-05-08T10:33:20.559Z,119.1538
2023-05-08T10:34:21.649Z,119.7692
2023-05-08T10:35:22.754Z,121.2308
2023-05-08T10:36:23.927Z,121.0769
2023-05-08T10:37:24.953Z,119.3077
2023-05-08T10:38:26.075Z,118.6923
2023-05-08T10:39:27.156Z,115.6923
2023-05-08T10:40:28.259Z,115.0000
2023-05-08T10:41:29.361Z,118.0769
2023-05-08T10:42:30.462Z,116.6154
2023-05-08T10:43:31.603Z,110.6154
2023-05-08T10:44:32.673Z,116.2308
2023-05-08T10:45:33.787Z,117.0769
2023-05-08T10:46:34.893Z,123.9231
2023-05-08T10:47:36.023Z,122.0000
2023-05-08T10:48:37.105Z,119.1538
2023-05-08T10:49:38.210Z,122.6923
2023-05-08T10:50:39.321Z,119.4615
2023-05-08T10:51:40.423Z,119.9231
2023-05-08T10:52:41.520Z,117.9231
2023-05-08T10:53:42.620Z,121.0000
2023-05-08T10:54:43.719Z,123.0000
2023-05-08T10:55:44.839Z,117.0000
2023-05-08T10:56:45.933Z,117.6154
2023-05-08T10:57:47.031Z,116.0769
2023-05-08T10:58:48.124Z,120.9231
2023-05-08T10:59:49.223Z,118.1538
2023-05-08T11:00:50.314Z,112.9231
2023-05-08T11:01:51.460Z,117.8462
2023-05-08T11:02:52.560Z,113.6154
2023-05-08T11:03:53.682Z,106.9231
2023-05-08T11:04:54.702Z,110.5385
2023-05-08T11:05:55.819Z,113.8462
2023-05-08T11:06:56.925Z,112.3846
2023-05-08T11:07:58.027Z,106.6923
2023-05-08T11:09:00.612Z,112.0000
2023-05-08T11:10:00.209Z,109.6154
2023-05-08T11:11:01.374Z,114.6154
2023-05-08T11:12:02.428Z,114.1538
2023-05-08T11:13:03.539Z,113.2308
2023-05-08T11:14:04.638Z,116.6923
2023-05-08T11:15:05.744Z,115.9231
2023-05-08T11:16:06.912Z,112.3846
2023-05-08T11:17:07.970Z,116.0769
2023-05-08T11:18:09.175Z,114.1538
2023-05-08T11:19:10.142Z,112.3077
2023-05-08T11:20:11.257Z,115.2308
2023-05-08T11:21:12.358Z,115.1538
2023-05-08T11:22:13.479Z,112.3077
2023-05-08T11:23:14.552Z,114.3077
2023-05-08T11:24:15.681Z,116.0769
2023-05-08T11:25:16.795Z,110.2308
2023-05-08T11:26:17.904Z,112.6923
2023-05-08T11:27:18.990Z,116.2308
2023-05-08T11:28:20.109Z,108.0000
2023-05-08T11:29:21.214Z,108.6923
2023-05-08T11:30:22.324Z,112.0000
2023-05-08T11:31:23.493Z,114.3846
2023-05-08T11:32:24.576Z,114.5385
2023-05-08T11:33:25.648Z,114.3846
2023-05-08T11:34:26.753Z,113.2308
2023-05-08T11:35:27.842Z,114.2308
2023-05-08T11:36:29.008Z,115.6923
2023-05-08T11:37:30.053Z,116.7692
2023-05-08T11:38:31.163Z,115.0769
2023-05-08T11:39:32.275Z,114.6923
2023-05-08T11:40:33.369Z,119.4615
2023-05-08T11:41:34.479Z,116.3846
2023-05-08T11:42:35.578Z,117.6154
2023-05-08T11:43:36.721Z,115.4615
2023-05-08T11:44:37.787Z,115.0000
2023-05-08T11:45:38.903Z,120.3846
2023-05-08T11:46:40.076Z,122.3846
2023-05-08T11:47:41.178Z,121.6154
2023-05-08T11:48:42.222Z,131.0769
2023-05-08T11:49:43.323Z,129.7692
2023-05-08T11:50:44.430Z,132.0000
2023-05-08T11:51:45.559Z,135.2308
2023-05-08T11:52:46.636Z,139.1538
2023-05-08T11:53:47.763Z,137.3846
2023-05-08T11:54:48.857Z,153.3846
2023-05-08T11:55:49.961Z,202.0769
2023-05-08T11:56:51.080Z,183.7692
2023-05-08T11:57:52.193Z,161.3846
2023-05-08T11:58:53.295Z,150.3846
2023-05-08T11:59:54.389Z,148.0769
2023-05-08T12:00:55.553Z,141.9231
2023-05-08T12:02:07.559Z,136.3846
2023-05-08T12:02:58.941Z,132.8462
2023-05-08T12:03:59.087Z,130.6923
2023-05-08T12:05:00.010Z,136.6923
2023-05-08T12:06:01.060Z,130.7692
2023-05-08T12:07:02.148Z,132.3077
2023-05-08T12:08:03.237Z,136.0000
2023-05-08T12:09:04.361Z,137.6154
2023-05-08T12:10:05.492Z,135.4615
2023-05-08T12:11:06.557Z,134.2308
2023-05-08T12:12:07.772Z,145.5385